sensor_id;sensor_type;location;lat;lon;timestamp;temperature;humidity
67820;DHT22;54618;52.018;5.576;2022-11-20T00:00:52;15.80;49.80
67820;DHT22;54618;52.018;5.576;2022-11-20T00:03:17;15.80;49.80
67820;DHT22;54618;52.018;5.576;2022-11-20T00:05:43;15.80;49.80
67820;DHT22;54618;52.018;5.576;2022-11-20T00:08:09;15.80;49.80
67820;DHT22;54618;52.018;5.576;2022-11-20T00:10:39;15.80;49.80
67820;DHT22;54618;52.018;5.576;2022-11-20T00:13:05;15.80;49.90
67820;DHT22;54618;52.018;5.576;2022-11-20T00:15:31;15.80;49.90
67820;DHT22;54618;52.018;5.576;2022-11-20T00:17:56;15.80;49.90
67820;DHT22;54618;52.018;5.576;2022-11-20T00:20:22;15.80;49.90
67820;DHT22;54618;52.018;5.576;2022-11-20T00:22:50;15.80;49.90
67820;DHT22;54618;52.018;5.576;2022-11-20T00:25:16;15.80;50.00
67820;DHT22;54618;52.018;5.576;2022-11-20T00:27:42;15.80;49.90
67820;DHT22;54618;52.018;5.576;2022-11-20T00:30:08;15.80;50.00
67820;DHT22;54618;52.018;5.576;2022-11-20T00:32:33;15.80;50.00
67820;DHT22;54618;52.018;5.576;2022-11-20T00:34:59;15.80;50.00
67820;DHT22;54618;52.018;5.576;2022-11-20T00:37:24;15.80;50.00
67820;DHT22;54618;52.018;5.576;2022-11-20T00:39:50;15.80;50.00
67820;DHT22;54618;52.018;5.576;2022-11-20T00:42:15;15.70;49.90
67820;DHT22;54618;52.018;5.576;2022-11-20T00:44:41;15.70;50.00
67820;DHT22;54618;52.018;5.576;2022-11-20T00:47:07;15.80;50.10
67820;DHT22;54618;52.018;5.576;2022-11-20T00:49:32;15.80;50.00
67820;DHT22;54618;52.018;5.576;2022-11-20T00:51:58;15.70;50.00
67820;DHT22;54618;52.018;5.576;2022-11-20T00:54:23;15.80;50.00
67820;DHT22;54618;52.018;5.576;2022-11-20T00:56:49;15.70;50.00
67820;DHT22;54618;52.018;5.576;2022-11-20T00:59:14;15.70;50.00
67820;DHT22;54618;52.018;5.576;2022-11-20T01:01:40;15.70;50.00
67820;DHT22;54618;52.018;5.576;2022-11-20T01:04:05;15.70;50.00
67820;DHT22;54618;52.018;5.576;2022-11-20T01:06:32;15.70;50.00
67820;DHT22;54618;52.018;5.576;2022-11-20T01:08:59;15.70;50.10
67820;DHT22;54618;52.018;5.576;2022-11-20T01:11:27;15.70;50.00
67820;DHT22;54618;52.018;5.576;2022-11-20T01:13:54;15.70;50.10
67820;DHT22;54618;52.018;5.576;2022-11-20T01:16:26;15.70;50.10
67820;DHT22;54618;52.018;5.576;2022-11-20T01:18:55;15.70;50.10
67820;DHT22;54618;52.018;5.576;2022-11-20T01:21:24;15.70;50.10
67820;DHT22;54618;52.018;5.576;2022-11-20T01:23:50;15.70;50.10
67820;DHT22;54618;52.018;5.576;2022-11-20T01:26:21;15.70;50.10
67820;DHT22;54618;52.018;5.576;2022-11-20T01:28:47;15.70;50.10
67820;DHT22;54618;52.018;5.576;2022-11-20T01:31:15;15.70;50.10
67820;DHT22;54618;52.018;5.576;2022-11-20T01:33:42;15.70;50.10
67820;DHT22;54618;52.018;5.576;2022-11-20T01:36:08;15.70;50.10
67820;DHT22;54618;52.018;5.576;2022-11-20T01:38:34;15.70;50.10
67820;DHT22;54618;52.018;5.576;2022-11-20T01:41:00;15.70;50.10
67820;DHT22;54618;52.018;5.576;2022-11-20T01:43:26;15.70;50.10
67820;DHT22;54618;52.018;5.576;2022-11-20T01:46:01;15.70;50.10
67820;DHT22;54618;52.018;5.576;2022-11-20T01:51:39;15.70;50.10
67820;DHT22;54618;52.018;5.576;2022-11-20T01:54:13;15.70;50.20
67820;DHT22;54618;52.018;5.576;2022-11-20T01:56:43;15.70;50.10
67820;DHT22;54618;52.018;5.576;2022-11-20T01:59:10;15.70;50.10
67820;DHT22;54618;52.018;5.576;2022-11-20T02:01:37;15.70;50.10
67820;DHT22;54618;52.018;5.576;2022-11-20T02:04:04;15.70;50.10
67820;DHT22;54618;52.018;5.576;2022-11-20T02:06:35;15.70;50.10
67820;DHT22;54618;52.018;5.576;2022-11-20T02:09:01;15.70;50.10
67820;DHT22;54618;52.018;5.576;2022-11-20T02:11:27;15.70;50.10
67820;DHT22;54618;52.018;5.576;2022-11-20T02:13:53;15.60;50.00
67820;DHT22;54618;52.018;5.576;2022-11-20T02:16:27;15.70;50.10
67820;DHT22;54618;52.018;5.576;2022-11-20T02:18:55;15.70;50.10
67820;DHT22;54618;52.018;5.576;2022-11-20T02:21:51;15.70;50.10
67820;DHT22;54618;52.018;5.576;2022-11-20T02:24:22;15.70;50.00
67820;DHT22;54618;52.018;5.576;2022-11-20T02:26:58;15.60;50.00
67820;DHT22;54618;52.018;5.576;2022-11-20T02:29:36;15.60;50.00
67820;DHT22;54618;52.018;5.576;2022-11-20T02:32:02;15.70;50.00
67820;DHT22;54618;52.018;5.576;2022-11-20T02:34:28;15.60;50.00
67820;DHT22;54618;52.018;5.576;2022-11-20T02:36:54;15.60;50.00
67820;DHT22;54618;52.018;5.576;2022-11-20T02:39:24;15.70;50.00
67820;DHT22;54618;52.018;5.576;2022-11-20T02:41:55;15.70;50.00
67820;DHT22;54618;52.018;5.576;2022-11-20T02:44:21;15.60;50.00
67820;DHT22;54618;52.018;5.576;2022-11-20T02:46:46;15.60;50.00
67820;DHT22;54618;52.018;5.576;2022-11-20T02:49:12;15.60;50.00
67820;DHT22;54618;52.018;5.576;2022-11-20T02:51:37;15.60;50.00
67820;DHT22;54618;52.018;5.576;2022-11-20T02:54:03;15.70;50.00
67820;DHT22;54618;52.018;5.576;2022-11-20T02:56:29;15.60;50.00
67820;DHT22;54618;52.018;5.576;2022-11-20T02:58:55;15.70;50.00
67820;DHT22;54618;52.018;5.576;2022-11-20T03:01:21;15.60;50.00
67820;DHT22;54618;52.018;5.576;2022-11-20T03:03:47;15.70;50.00
67820;DHT22;54618;52.018;5.576;2022-11-20T03:06:14;15.60;50.00
67820;DHT22;54618;52.018;5.576;2022-11-20T03:08:40;15.70;50.00
67820;DHT22;54618;52.018;5.576;2022-11-20T03:11:06;15.70;50.00
67820;DHT22;54618;52.018;5.576;2022-11-20T03:13:32;15.60;49.90
67820;DHT22;54618;52.018;5.576;2022-11-20T03:15:58;15.60;49.90
67820;DHT22;54618;52.018;5.576;2022-11-20T03:18:23;15.70;50.00
67820;DHT22;54618;52.018;5.576;2022-11-20T03:20:49;15.60;49.90
67820;DHT22;54618;52.018;5.576;2022-11-20T03:23:14;15.70;50.00
67820;DHT22;54618;52.018;5.576;2022-11-20T03:25:40;15.60;49.90
67820;DHT22;54618;52.018;5.576;2022-11-20T03:28:05;15.60;49.90
67820;DHT22;54618;52.018;5.576;2022-11-20T03:30:31;15.60;49.90
67820;DHT22;54618;52.018;5.576;2022-11-20T03:32:56;15.60;49.90
67820;DHT22;54618;52.018;5.576;2022-11-20T03:35:22;15.60;49.90
67820;DHT22;54618;52.018;5.576;2022-11-20T03:37:47;15.60;49.90
67820;DHT22;54618;52.018;5.576;2022-11-20T03:40:13;15.60;49.80
67820;DHT22;54618;52.018;5.576;2022-11-20T03:42:39;15.60;49.80
67820;DHT22;54618;52.018;5.576;2022-11-20T03:45:10;15.60;49.90
67820;DHT22;54618;52.018;5.576;2022-11-20T03:47:36;15.60;49.90
67820;DHT22;54618;52.018;5.576;2022-11-20T03:50:02;15.60;49.80
67820;DHT22;54618;52.018;5.576;2022-11-20T03:52:28;15.60;49.80
67820;DHT22;54618;52.018;5.576;2022-11-20T03:54:53;15.60;49.80
67820;DHT22;54618;52.018;5.576;2022-11-20T03:57:19;15.60;49.80
67820;DHT22;54618;52.018;5.576;2022-11-20T03:59:44;15.60;49.80
67820;DHT22;54618;52.018;5.576;2022-11-20T04:02:10;15.60;49.70
67820;DHT22;54618;52.018;5.576;2022-11-20T04:04:35;15.60;49.70
67820;DHT22;54618;52.018;5.576;2022-11-20T04:07:01;15.60;49.70
67820;DHT22;54618;52.018;5.576;2022-11-20T04:09:27;15.60;49.70
67820;DHT22;54618;52.018;5.576;2022-11-20T04:11:52;15.60;49.70
67820;DHT22;54618;52.018;5.576;2022-11-20T04:14:18;15.60;49.70
67820;DHT22;54618;52.018;5.576;2022-11-20T04:16:43;15.60;49.70
67820;DHT22;54618;52.018;5.576;2022-11-20T04:19:11;15.60;49.70
67820;DHT22;54618;52.018;5.576;2022-11-20T04:21:38;15.60;49.70
67820;DHT22;54618;52.018;5.576;2022-11-20T04:24:03;15.60;49.70
67820;DHT22;54618;52.018;5.576;2022-11-20T04:26:29;15.60;49.70
67820;DHT22;54618;52.018;5.576;2022-11-20T04:28:56;15.60;49.70
67820;DHT22;54618;52.018;5.576;2022-11-20T04:31:24;15.60;49.70
67820;DHT22;54618;52.018;5.576;2022-11-20T04:33:50;15.60;49.70
67820;DHT22;54618;52.018;5.576;2022-11-20T04:36:25;15.60;49.70
67820;DHT22;54618;52.018;5.576;2022-11-20T04:38:52;15.60;49.60
67820;DHT22;54618;52.018;5.576;2022-11-20T04:41:19;15.60;49.60
67820;DHT22;54618;52.018;5.576;2022-11-20T04:43:53;15.60;49.70
67820;DHT22;54618;52.018;5.576;2022-11-20T04:46:25;15.60;49.60
67820;DHT22;54618;52.018;5.576;2022-11-20T04:48:50;15.60;49.60
67820;DHT22;54618;52.018;5.576;2022-11-20T04:51:16;15.60;49.60
67820;DHT22;54618;52.018;5.576;2022-11-20T04:53:42;15.60;49.60
67820;DHT22;54618;52.018;5.576;2022-11-20T04:56:11;15.60;49.60
67820;DHT22;54618;52.018;5.576;2022-11-20T04:58:38;15.60;49.60
67820;DHT22;54618;52.018;5.576;2022-11-20T05:01:14;15.60;49.60
67820;DHT22;54618;52.018;5.576;2022-11-20T05:03:41;15.60;49.60
67820;DHT22;54618;52.018;5.576;2022-11-20T05:06:08;15.60;49.60
67820;DHT22;54618;52.018;5.576;2022-11-20T05:08:34;15.60;49.60
67820;DHT22;54618;52.018;5.576;2022-11-20T05:11:05;15.60;49.60
67820;DHT22;54618;52.018;5.576;2022-11-20T05:13:31;15.60;49.60
67820;DHT22;54618;52.018;5.576;2022-11-20T05:16:02;15.60;49.60
67820;DHT22;54618;52.018;5.576;2022-11-20T05:18:28;15.60;49.60
67820;DHT22;54618;52.018;5.576;2022-11-20T05:20:57;15.60;49.60
67820;DHT22;54618;52.018;5.576;2022-11-20T05:23:23;15.60;49.60
67820;DHT22;54618;52.018;5.576;2022-11-20T05:25:53;15.60;49.50
67820;DHT22;54618;52.018;5.576;2022-11-20T05:28:19;15.60;49.50
67820;DHT22;54618;52.018;5.576;2022-11-20T05:30:44;15.60;49.60
67820;DHT22;54618;52.018;5.576;2022-11-20T05:33:10;15.60;49.60
67820;DHT22;54618;52.018;5.576;2022-11-20T05:35:35;15.50;49.40
67820;DHT22;54618;52.018;5.576;2022-11-20T05:38:01;15.50;49.40
67820;DHT22;54618;52.018;5.576;2022-11-20T05:40:26;15.50;49.40
67820;DHT22;54618;52.018;5.576;2022-11-20T05:42:52;15.50;49.40
67820;DHT22;54618;52.018;5.576;2022-11-20T05:45:17;15.50;49.40
67820;DHT22;54618;52.018;5.576;2022-11-20T05:47:42;15.50;49.40
67820;DHT22;54618;52.018;5.576;2022-11-20T05:50:08;15.50;49.40
67820;DHT22;54618;52.018;5.576;2022-11-20T05:52:34;15.50;49.30
67820;DHT22;54618;52.018;5.576;2022-11-20T05:54:59;15.50;49.40
67820;DHT22;54618;52.018;5.576;2022-11-20T05:57:25;15.50;49.40
67820;DHT22;54618;52.018;5.576;2022-11-20T05:59:50;15.50;49.30
67820;DHT22;54618;52.018;5.576;2022-11-20T06:02:15;15.50;49.30
67820;DHT22;54618;52.018;5.576;2022-11-20T06:04:41;15.50;49.30
67820;DHT22;54618;52.018;5.576;2022-11-20T06:07:07;15.50;49.30
67820;DHT22;54618;52.018;5.576;2022-11-20T06:09:32;15.50;49.30
67820;DHT22;54618;52.018;5.576;2022-11-20T06:11:58;15.50;49.30
67820;DHT22;54618;52.018;5.576;2022-11-20T06:14:23;15.50;49.30
67820;DHT22;54618;52.018;5.576;2022-11-20T06:16:49;15.50;49.30
67820;DHT22;54618;52.018;5.576;2022-11-20T06:19:15;15.50;49.30
67820;DHT22;54618;52.018;5.576;2022-11-20T06:21:40;15.50;49.30
67820;DHT22;54618;52.018;5.576;2022-11-20T06:24:06;15.50;49.30
67820;DHT22;54618;52.018;5.576;2022-11-20T06:26:34;15.50;49.30
67820;DHT22;54618;52.018;5.576;2022-11-20T06:28:59;15.50;49.90
67820;DHT22;54618;52.018;5.576;2022-11-20T06:31:25;15.50;49.20
67820;DHT22;54618;52.018;5.576;2022-11-20T06:33:51;15.50;49.20
67820;DHT22;54618;52.018;5.576;2022-11-20T06:36:19;15.50;49.20
67820;DHT22;54618;52.018;5.576;2022-11-20T06:38:45;15.50;49.20
67820;DHT22;54618;52.018;5.576;2022-11-20T06:41:12;15.50;49.10
67820;DHT22;54618;52.018;5.576;2022-11-20T06:43:38;15.50;49.10
67820;DHT22;54618;52.018;5.576;2022-11-20T06:46:04;15.50;49.10
67820;DHT22;54618;52.018;5.576;2022-11-20T06:48:30;15.50;49.10
67820;DHT22;54618;52.018;5.576;2022-11-20T06:50:56;15.50;49.10
67820;DHT22;54618;52.018;5.576;2022-11-20T06:53:22;15.50;49.10
67820;DHT22;54618;52.018;5.576;2022-11-20T06:55:50;15.50;49.10
67820;DHT22;54618;52.018;5.576;2022-11-20T06:58:16;15.50;49.10
67820;DHT22;54618;52.018;5.576;2022-11-20T07:00:43;15.50;49.10
67820;DHT22;54618;52.018;5.576;2022-11-20T07:03:09;15.50;49.00
67820;DHT22;54618;52.018;5.576;2022-11-20T07:05:36;15.50;49.00
67820;DHT22;54618;52.018;5.576;2022-11-20T07:08:03;15.50;49.10
67820;DHT22;54618;52.018;5.576;2022-11-20T07:10:28;15.40;49.00
67820;DHT22;54618;52.018;5.576;2022-11-20T07:12:54;15.50;49.00
67820;DHT22;54618;52.018;5.576;2022-11-20T07:15:21;15.40;49.00
67820;DHT22;54618;52.018;5.576;2022-11-20T07:17:48;15.40;49.00
67820;DHT22;54618;52.018;5.576;2022-11-20T07:20:14;15.50;49.00
67820;DHT22;54618;52.018;5.576;2022-11-20T07:22:40;15.50;48.90
67820;DHT22;54618;52.018;5.576;2022-11-20T07:25:07;15.50;49.00
67820;DHT22;54618;52.018;5.576;2022-11-20T07:27:32;15.40;48.90
67820;DHT22;54618;52.018;5.576;2022-11-20T07:29:59;15.40;48.90
67820;DHT22;54618;52.018;5.576;2022-11-20T07:32:25;15.40;49.40
67820;DHT22;54618;52.018;5.576;2022-11-20T07:34:50;15.40;48.90
67820;DHT22;54618;52.018;5.576;2022-11-20T07:37:16;15.40;48.90
67820;DHT22;54618;52.018;5.576;2022-11-20T07:39:41;15.40;48.90
67820;DHT22;54618;52.018;5.576;2022-11-20T07:42:07;15.50;48.90
67820;DHT22;54618;52.018;5.576;2022-11-20T07:44:33;15.40;48.90
67820;DHT22;54618;52.018;5.576;2022-11-20T07:46:59;15.40;48.90
67820;DHT22;54618;52.018;5.576;2022-11-20T07:49:24;15.40;48.80
67820;DHT22;54618;52.018;5.576;2022-11-20T07:51:50;15.40;48.80
67820;DHT22;54618;52.018;5.576;2022-11-20T07:54:16;15.40;48.80
67820;DHT22;54618;52.018;5.576;2022-11-20T07:56:42;15.50;48.80
67820;DHT22;54618;52.018;5.576;2022-11-20T07:59:08;15.40;48.80
67820;DHT22;54618;52.018;5.576;2022-11-20T08:01:33;15.40;48.80
67820;DHT22;54618;52.018;5.576;2022-11-20T08:03:58;15.50;48.90
67820;DHT22;54618;52.018;5.576;2022-11-20T08:06:24;15.40;48.80
67820;DHT22;54618;52.018;5.576;2022-11-20T08:08:50;15.50;48.80
67820;DHT22;54618;52.018;5.576;2022-11-20T08:11:15;15.50;48.80
67820;DHT22;54618;52.018;5.576;2022-11-20T08:14:00;15.50;48.90
67820;DHT22;54618;52.018;5.576;2022-11-20T08:16:41;15.50;48.80
67820;DHT22;54618;52.018;5.576;2022-11-20T08:19:07;15.40;48.80
67820;DHT22;54618;52.018;5.576;2022-11-20T08:21:33;15.50;48.80
67820;DHT22;54618;52.018;5.576;2022-11-20T08:23:59;15.40;48.80
67820;DHT22;54618;52.018;5.576;2022-11-20T08:26:25;15.50;48.90
67820;DHT22;54618;52.018;5.576;2022-11-20T08:28:55;15.50;48.80
67820;DHT22;54618;52.018;5.576;2022-11-20T08:31:22;15.40;48.80
67820;DHT22;54618;52.018;5.576;2022-11-20T08:33:47;15.50;48.90
67820;DHT22;54618;52.018;5.576;2022-11-20T08:36:13;15.50;48.80
67820;DHT22;54618;52.018;5.576;2022-11-20T08:38:39;15.50;48.80
67820;DHT22;54618;52.018;5.576;2022-11-20T08:41:05;15.40;48.80
67820;DHT22;54618;52.018;5.576;2022-11-20T08:43:50;15.40;48.70
67820;DHT22;54618;52.018;5.576;2022-11-20T08:46:16;15.50;48.80
67820;DHT22;54618;52.018;5.576;2022-11-20T08:48:41;15.50;48.80
67820;DHT22;54618;52.018;5.576;2022-11-20T08:51:07;15.40;48.80
67820;DHT22;54618;52.018;5.576;2022-11-20T08:53:33;15.40;48.80
67820;DHT22;54618;52.018;5.576;2022-11-20T08:55:59;15.40;48.80
67820;DHT22;54618;52.018;5.576;2022-11-20T08:58:25;15.40;48.80
67820;DHT22;54618;52.018;5.576;2022-11-20T09:00:51;15.40;48.80
67820;DHT22;54618;52.018;5.576;2022-11-20T09:03:16;15.40;48.80
67820;DHT22;54618;52.018;5.576;2022-11-20T09:05:42;15.50;48.90
67820;DHT22;54618;52.018;5.576;2022-11-20T09:08:08;15.40;48.80
67820;DHT22;54618;52.018;5.576;2022-11-20T09:10:34;15.50;48.90
67820;DHT22;54618;52.018;5.576;2022-11-20T09:13:00;15.50;48.90
67820;DHT22;54618;52.018;5.576;2022-11-20T09:15:26;15.50;48.80
67820;DHT22;54618;52.018;5.576;2022-11-20T09:17:58;15.40;48.80
67820;DHT22;54618;52.018;5.576;2022-11-20T09:20:25;15.50;48.90
67820;DHT22;54618;52.018;5.576;2022-11-20T09:22:50;15.40;48.80
67820;DHT22;54618;52.018;5.576;2022-11-20T09:25:16;15.50;48.80
67820;DHT22;54618;52.018;5.576;2022-11-20T09:27:42;15.50;48.80
67820;DHT22;54618;52.018;5.576;2022-11-20T09:30:10;15.50;48.90
67820;DHT22;54618;52.018;5.576;2022-11-20T09:32:35;15.40;48.80
67820;DHT22;54618;52.018;5.576;2022-11-20T09:35:01;15.50;48.80
67820;DHT22;54618;52.018;5.576;2022-11-20T09:37:27;15.40;48.80
67820;DHT22;54618;52.018;5.576;2022-11-20T09:39:53;15.40;48.80
67820;DHT22;54618;52.018;5.576;2022-11-20T09:45:34;15.40;48.80
67820;DHT22;54618;52.018;5.576;2022-11-20T09:50:53;15.50;48.90
67820;DHT22;54618;52.018;5.576;2022-11-20T09:56:08;15.40;48.90
67820;DHT22;54618;52.018;5.576;2022-11-20T09:58:44;15.40;48.90
67820;DHT22;54618;52.018;5.576;2022-11-20T10:01:21;15.40;48.90
67820;DHT22;54618;52.018;5.576;2022-11-20T10:04:04;15.50;49.00
67820;DHT22;54618;52.018;5.576;2022-11-20T10:14:52;15.40;48.90
67820;DHT22;54618;52.018;5.576;2022-11-20T10:20:35;15.40;49.00
67820;DHT22;54618;52.018;5.576;2022-11-20T10:25:39;15.40;49.00
67820;DHT22;54618;52.018;5.576;2022-11-20T10:31:02;15.40;49.10
67820;DHT22;54618;52.018;5.576;2022-11-20T10:33:36;15.40;49.10
67820;DHT22;54618;52.018;5.576;2022-11-20T10:36:14;15.40;49.10
67820;DHT22;54618;52.018;5.576;2022-11-20T10:38:44;15.40;49.20
67820;DHT22;54618;52.018;5.576;2022-11-20T10:41:17;15.40;49.20
67820;DHT22;54618;52.018;5.576;2022-11-20T10:46:56;15.40;49.20
67820;DHT22;54618;52.018;5.576;2022-11-20T10:49:21;15.40;49.20
67820;DHT22;54618;52.018;5.576;2022-11-20T10:57:31;15.40;49.30
67820;DHT22;54618;52.018;5.576;2022-11-20T11:00:06;15.40;49.40
67820;DHT22;54618;52.018;5.576;2022-11-20T11:02:39;15.40;49.40
67820;DHT22;54618;52.018;5.576;2022-11-20T11:07:54;15.40;49.40
67820;DHT22;54618;52.018;5.576;2022-11-20T11:10:36;15.40;49.40
67820;DHT22;54618;52.018;5.576;2022-11-20T11:13:03;15.40;49.50
67820;DHT22;54618;52.018;5.576;2022-11-20T11:15:40;15.40;49.50
67820;DHT22;54618;52.018;5.576;2022-11-20T11:18:10;15.40;49.50
67820;DHT22;54618;52.018;5.576;2022-11-20T11:20:36;15.40;49.60
67820;DHT22;54618;52.018;5.576;2022-11-20T11:23:02;15.40;49.60
67820;DHT22;54618;52.018;5.576;2022-11-20T11:25:35;15.40;49.60
67820;DHT22;54618;52.018;5.576;2022-11-20T11:28:20;15.40;49.60
67820;DHT22;54618;52.018;5.576;2022-11-20T11:30:46;15.40;49.60
67820;DHT22;54618;52.018;5.576;2022-11-20T11:33:28;15.40;49.50
67820;DHT22;54618;52.018;5.576;2022-11-20T11:35:59;15.30;49.50
67820;DHT22;54618;52.018;5.576;2022-11-20T11:38:37;15.30;49.50
67820;DHT22;54618;52.018;5.576;2022-11-20T11:41:05;15.30;49.50
67820;DHT22;54618;52.018;5.576;2022-11-20T11:43:36;15.30;49.50
67820;DHT22;54618;52.018;5.576;2022-11-20T11:57:04;15.30;49.40
67820;DHT22;54618;52.018;5.576;2022-11-20T11:59:49;15.30;49.50
67820;DHT22;54618;52.018;5.576;2022-11-20T12:02:29;15.30;49.40
67820;DHT22;54618;52.018;5.576;2022-11-20T12:05:10;15.30;49.40
67820;DHT22;54618;52.018;5.576;2022-11-20T12:07:43;15.30;49.40
67820;DHT22;54618;52.018;5.576;2022-11-20T12:10:42;15.30;49.50
67820;DHT22;54618;52.018;5.576;2022-11-20T12:16:12;15.30;49.50
67820;DHT22;54618;52.018;5.576;2022-11-20T12:18:39;15.30;49.50
67820;DHT22;54618;52.018;5.576;2022-11-20T12:21:26;15.40;49.70
67820;DHT22;54618;52.018;5.576;2022-11-20T12:30:19;15.30;49.70
67820;DHT22;54618;52.018;5.576;2022-11-20T12:35:58;15.30;50.30
67820;DHT22;54618;52.018;5.576;2022-11-20T12:38:56;15.30;49.80
67820;DHT22;54618;52.018;5.576;2022-11-20T12:41:53;15.30;49.80
67820;DHT22;54618;52.018;5.576;2022-11-20T12:45:05;15.30;49.80
67820;DHT22;54618;52.018;5.576;2022-11-20T12:47:51;15.30;49.80
67820;DHT22;54618;52.018;5.576;2022-11-20T12:50:36;15.30;49.90
67820;DHT22;54618;52.018;5.576;2022-11-20T12:53:31;15.30;49.90
67820;DHT22;54618;52.018;5.576;2022-11-20T13:07:38;15.30;50.00
67820;DHT22;54618;52.018;5.576;2022-11-20T13:10:05;15.30;49.90
67820;DHT22;54618;52.018;5.576;2022-11-20T13:12:45;15.20;49.90
67820;DHT22;54618;52.018;5.576;2022-11-20T13:15:31;15.20;49.90
67820;DHT22;54618;52.018;5.576;2022-11-20T13:18:00;15.20;49.90
67820;DHT22;54618;52.018;5.576;2022-11-20T13:20:27;15.20;50.00
67820;DHT22;54618;52.018;5.576;2022-11-20T13:22:56;15.20;50.00
67820;DHT22;54618;52.018;5.576;2022-11-20T13:25:32;15.20;49.90
67820;DHT22;54618;52.018;5.576;2022-11-20T13:28:45;15.20;49.90
67820;DHT22;54618;52.018;5.576;2022-11-20T13:30:53;15.20;50.00
67820;DHT22;54618;52.018;5.576;2022-11-20T13:33:32;15.20;50.00
67820;DHT22;54618;52.018;5.576;2022-11-20T13:36:03;15.20;50.00
67820;DHT22;54618;52.018;5.576;2022-11-20T13:38:46;15.20;50.00
67820;DHT22;54618;52.018;5.576;2022-11-20T13:41:22;15.20;50.00
67820;DHT22;54618;52.018;5.576;2022-11-20T13:46:41;15.20;50.00
67820;DHT22;54618;52.018;5.576;2022-11-20T13:51:47;15.20;50.00
67820;DHT22;54618;52.018;5.576;2022-11-20T14:00:13;15.20;50.10
67820;DHT22;54618;52.018;5.576;2022-11-20T14:02:40;15.20;50.00
67820;DHT22;54618;52.018;5.576;2022-11-20T14:05:17;15.20;50.00
67820;DHT22;54618;52.018;5.576;2022-11-20T14:07:44;15.20;50.00
67820;DHT22;54618;52.018;5.576;2022-11-20T14:10:27;15.20;50.00
67820;DHT22;54618;52.018;5.576;2022-11-20T14:12:53;15.20;50.00
67820;DHT22;54618;52.018;5.576;2022-11-20T14:15:28;15.20;50.10
67820;DHT22;54618;52.018;5.576;2022-11-20T14:17:54;15.20;50.00
67820;DHT22;54618;52.018;5.576;2022-11-20T14:20:20;15.20;50.00
67820;DHT22;54618;52.018;5.576;2022-11-20T14:22:51;15.20;50.00
67820;DHT22;54618;52.018;5.576;2022-11-20T14:30:23;15.20;50.00
67820;DHT22;54618;52.018;5.576;2022-11-20T14:32:51;15.20;50.10
67820;DHT22;54618;52.018;5.576;2022-11-20T14:35:28;15.20;50.10
67820;DHT22;54618;52.018;5.576;2022-11-20T14:37:55;15.20;50.10
67820;DHT22;54618;52.018;5.576;2022-11-20T14:40:23;15.20;50.10
67820;DHT22;54618;52.018;5.576;2022-11-20T14:42:49;15.20;50.10
67820;DHT22;54618;52.018;5.576;2022-11-20T14:45:15;15.10;50.10
67820;DHT22;54618;52.018;5.576;2022-11-20T14:47:42;15.20;50.10
67820;DHT22;54618;52.018;5.576;2022-11-20T14:50:28;15.20;50.10
67820;DHT22;54618;52.018;5.576;2022-11-20T14:52:59;15.20;50.10
67820;DHT22;54618;52.018;5.576;2022-11-20T14:55:32;15.10;50.10
67820;DHT22;54618;52.018;5.576;2022-11-20T14:58:03;15.20;50.20
67820;DHT22;54618;52.018;5.576;2022-11-20T15:00:31;15.10;50.10
67820;DHT22;54618;52.018;5.576;2022-11-20T15:02:57;15.10;50.10
67820;DHT22;54618;52.018;5.576;2022-11-20T15:05:44;15.20;50.20
67820;DHT22;54618;52.018;5.576;2022-11-20T15:08:13;15.20;50.20
67820;DHT22;54618;52.018;5.576;2022-11-20T15:10:39;15.20;50.20
67820;DHT22;54618;52.018;5.576;2022-11-20T15:13:13;15.10;50.10
67820;DHT22;54618;52.018;5.576;2022-11-20T15:15:46;15.10;50.80
67820;DHT22;54618;52.018;5.576;2022-11-20T15:18:21;15.20;50.20
67820;DHT22;54618;52.018;5.576;2022-11-20T15:20:47;15.20;50.20
67820;DHT22;54618;52.018;5.576;2022-11-20T15:23:15;15.10;50.20
67820;DHT22;54618;52.018;5.576;2022-11-20T15:25:43;15.20;50.30
67820;DHT22;54618;52.018;5.576;2022-11-20T15:30:55;15.20;50.30
67820;DHT22;54618;52.018;5.576;2022-11-20T15:33:21;15.20;50.30
67820;DHT22;54618;52.018;5.576;2022-11-20T15:35:47;15.10;50.30
67820;DHT22;54618;52.018;5.576;2022-11-20T15:38:12;15.20;50.30
67820;DHT22;54618;52.018;5.576;2022-11-20T15:40:38;15.20;50.30
67820;DHT22;54618;52.018;5.576;2022-11-20T15:43:04;15.20;50.30
67820;DHT22;54618;52.018;5.576;2022-11-20T15:45:47;15.20;50.30
67820;DHT22;54618;52.018;5.576;2022-11-20T15:48:19;15.20;50.30
67820;DHT22;54618;52.018;5.576;2022-11-20T15:53:34;15.10;50.30
67820;DHT22;54618;52.018;5.576;2022-11-20T15:56:00;15.10;50.30
67820;DHT22;54618;52.018;5.576;2022-11-20T15:58:25;15.20;50.40
67820;DHT22;54618;52.018;5.576;2022-11-20T16:00:51;15.10;50.30
67820;DHT22;54618;52.018;5.576;2022-11-20T16:03:18;15.10;50.30
67820;DHT22;54618;52.018;5.576;2022-11-20T16:05:44;15.10;50.30
67820;DHT22;54618;52.018;5.576;2022-11-20T16:08:10;15.10;50.30
67820;DHT22;54618;52.018;5.576;2022-11-20T16:10:35;15.10;50.40
67820;DHT22;54618;52.018;5.576;2022-11-20T16:13:01;15.20;50.40
67820;DHT22;54618;52.018;5.576;2022-11-20T16:15:56;15.20;50.40
67820;DHT22;54618;52.018;5.576;2022-11-20T16:18:22;15.10;50.40
67820;DHT22;54618;52.018;5.576;2022-11-20T16:20:50;15.20;50.50
67820;DHT22;54618;52.018;5.576;2022-11-20T16:23:16;15.20;50.50
67820;DHT22;54618;52.018;5.576;2022-11-20T16:25:43;15.20;50.50
67820;DHT22;54618;52.018;5.576;2022-11-20T16:28:09;15.20;50.50
67820;DHT22;54618;52.018;5.576;2022-11-20T16:30:34;15.20;50.50
67820;DHT22;54618;52.018;5.576;2022-11-20T16:33:01;15.20;50.50
67820;DHT22;54618;52.018;5.576;2022-11-20T16:35:30;15.20;50.50
67820;DHT22;54618;52.018;5.576;2022-11-20T16:37:57;15.20;50.50
67820;DHT22;54618;52.018;5.576;2022-11-20T16:40:23;15.20;50.60
67820;DHT22;54618;52.018;5.576;2022-11-20T16:42:49;15.20;50.50
67820;DHT22;54618;52.018;5.576;2022-11-20T16:45:15;15.20;50.50
67820;DHT22;54618;52.018;5.576;2022-11-20T16:47:41;15.20;50.60
67820;DHT22;54618;52.018;5.576;2022-11-20T16:50:07;15.20;50.60
67820;DHT22;54618;52.018;5.576;2022-11-20T16:52:32;15.20;50.60
67820;DHT22;54618;52.018;5.576;2022-11-20T16:54:58;15.20;50.70
67820;DHT22;54618;52.018;5.576;2022-11-20T16:57:24;15.20;50.60
67820;DHT22;54618;52.018;5.576;2022-11-20T16:59:51;15.20;50.70
67820;DHT22;54618;52.018;5.576;2022-11-20T17:02:17;15.10;50.60
67820;DHT22;54618;52.018;5.576;2022-11-20T17:04:42;15.20;50.70
67820;DHT22;54618;52.018;5.576;2022-11-20T17:07:08;15.20;50.70
67820;DHT22;54618;52.018;5.576;2022-11-20T17:09:33;15.10;50.70
67820;DHT22;54618;52.018;5.576;2022-11-20T17:11:59;15.10;50.70
67820;DHT22;54618;52.018;5.576;2022-11-20T17:14:24;15.10;50.70
67820;DHT22;54618;52.018;5.576;2022-11-20T17:16:50;15.10;50.70